Aviation Digital Data Service (ADDS)

Output produced by METARs form (1732 UTC 23 January 2019)
found at http://aviationweather.gov/metar/data/
 
KIAH 231720Z 2318/2424 33013G23KT P6SM SCT120 
     FM240000 32005KT P6SM SKC 
     FM240600 VRB03KT P6SM SKC 
     FM241600 15005KT P6SM SCT250